Friday, November 17, 2017, 2:36 PM EST
Back to Local

KEWR, Newark International Airport

Location: Elizabeth, NJ, United States Lat: 40.683
Local Time: 2:36 PM EST (19:36 GMT) Lon: -74.167
Time Zone: US/Eastern Elev: 16 ft

Show me the last for .
Show Decoded

2017-11-17 13:51 METAR KEWR 171851Z 31016G22KT 10SM FEW250 10/M08 A3006 RMK AO2 PK WND 28026/1807
                 SLP180 T01001083 =
2017-11-17 12:51 METAR KEWR 171751Z 29013G23KT 10SM FEW250 09/M07 A3007 RMK AO2 SLP181 T00941072
                 10094 20039 56008 =
2017-11-17 11:51 METAR KEWR 171651Z 28012KT 10SM FEW250 09/M06 A3007 RMK AO2 SLP181 T00891056 =
2017-11-17 10:51 METAR KEWR 171551Z 31014G21KT 10SM FEW043 07/M04 A3009 RMK AO2 PK WND 29027/1503
                 SLP188 T00721044 =
2017-11-17 09:51 METAR KEWR 171451Z 29016G24KT 10SM FEW040 07/M04 A3009 RMK AO2 PK WND 30029/1434
                 SLP189 T00671039 51017 =
2017-11-17 08:51 METAR KEWR 171351Z 29017G23KT 10SM FEW039 06/M04 A3009 RMK AO2 PK WND 32027/1308
                 SLP187 T00561039 =
2017-11-17 07:51 METAR KEWR 171251Z 30011KT 10SM FEW042 05/M04 A3006 RMK AO2 SLP180 T00501039 =
2017-11-17 06:51 METAR KEWR 171151Z 30014G21KT 10SM SCT041 04/M04 A3004 RMK AO2 PK WND 31026/1124
                 SLP172 T00391039 10072 20039 51022 =
2017-11-17 05:51 METAR KEWR 171051Z 31019G29KT 10SM BKN042 05/M04 A3003 RMK AO2 PK WND 31032/1027
                 SLP169 T00501044 =
2017-11-17 04:51 METAR KEWR 170951Z 32016G19KT 10SM BKN040 06/M03 A3001 RMK AO2 PK WND 33033/0902
                 SLP160 T00561028 =
2017-11-17 03:51 METAR KEWR 170851Z 30019G25KT 10SM BKN045 06/M02 A2998 RMK AO2 SLP150 T00611022
                 53015 =
2017-11-17 02:51 METAR KEWR 170751Z 29019G23KT 10SM SCT032 BKN050 06/M01 A2996 RMK AO2 SLP145
                 T00611011 =
2017-11-17 01:51 METAR KEWR 170651Z 30010KT 10SM FEW035 SCT050 SCT070 06/M01 A2994 RMK AO2 SLP139
                 T00611006 =
2017-11-17 00:51 METAR KEWR 170551Z 30008G17KT 260V340 10SM BKN032 BKN045 BKN070 07/02 A2993 RMK
                 AO2 RAB27E39 SLP135 P0000 60000 T00720017 10094 20067 53013 =
2017-11-16 23:51 METAR KEWR 170451Z 27011KT 10SM BKN045 07/01 A2991 RMK AO2 SLP128 T00670011
                 401500067 =
2017-11-16 22:51 METAR KEWR 170351Z 29007KT 10SM FEW030 SCT045 SCT070 07/02 A2991 RMK AO2
                 RAB26E48 SLP127 P0000 T00670017 =
2017-11-16 21:51 METAR KEWR 170251Z 27019G24KT 10SM FEW040 SCT070 08/01 A2989 RMK AO2 SLP122
                 T00780006 53009 =
2017-11-16 20:51 METAR KEWR 170151Z 27015KT 10SM FEW040 08/00 A2988 RMK AO2 SLP118 T00780000 =
2017-11-16 19:51 METAR KEWR 170051Z 27013KT 10SM FEW040 08/01 A2987 RMK AO2 PK WND 28026/0013
                 SLP115 T00830006 =
2017-11-16 18:51 METAR KEWR 162351Z 27013G20KT 10SM FEW040 FEW065 09/01 A2987 RMK AO2 SLP113
                 60000 T00940006 10150 20089 51023 =
2017-11-16 17:51 METAR KEWR 162251Z 27011KT 10SM FEW040 FEW065 09/01 A2985 RMK AO2 SLP108
                 T00940011 =
2017-11-16 16:51 METAR KEWR 162151Z 28017G21KT 10SM FEW040 FEW070 10/01 A2982 RMK AO2 SLP099
                 T01000011 =
2017-11-16 15:51 METAR KEWR 162051Z 27012KT 10SM FEW040 SCT065 SCT090 11/03 A2980 RMK AO2 RAE1955
                 SLP089 P0000 60000 T01110028 53008 =
2017-11-16 14:51 METAR KEWR 161951Z 26017G29KT 10SM -RA SCT050 BKN070 11/03 A2979 RMK AO2 PK WND
                 25039/1929 RAB38 SLP086 P0000 T01110028 =

Support USWX by starting your Amazon purchase here.